Time;durP1;ratioP1;P1;durP2;ratioP2;P2;SDS_P1;SDS_P2;PMS_P1;PMS_P2;Temp;Humidity;BMP_temperature;BMP_pressure;BME280_temperature;BME280_humidity;BME280_pressure;Samples;Min_cycle;Max_cycle;Signal;HPM_P1;HPM_P2
2022/04/12 00:00:12;;;;;;;5.22;3.10;;;6.60;64.10;;;;;;4977520;28;20095;-75
2022/04/12 00:02:38;;;;;;;4.70;3.00;;;6.60;64.30;;;;;;4980262;28;20727;-76
2022/04/12 00:05:03;;;;;;;4.25;2.90;;;6.60;64.40;;;;;;5013268;28;20029;-76
2022/04/12 00:07:29;;;;;;;5.65;2.55;;;6.60;64.60;;;;;;4988287;28;20042;-76
2022/04/12 00:09:54;;;;;;;4.30;2.75;;;6.50;64.70;;;;;;5019718;28;20077;-76
2022/04/12 00:12:20;;;;;;;5.28;2.80;;;6.50;64.70;;;;;;5039414;28;20563;-75
2022/04/12 00:14:45;;;;;;;4.53;2.47;;;6.50;64.70;;;;;;5004034;28;20493;-75
2022/04/12 00:20:15;;;;;;;4.05;2.25;;;6.40;64.90;;;;;;4971216;28;20158;-75
2022/04/12 00:22:41;;;;;;;4.05;2.88;;;6.40;64.90;;;;;;4951003;28;20031;-76
2022/04/12 00:25:09;;;;;;;3.80;2.30;;;6.40;65.00;;;;;;4973075;28;20040;-75
2022/04/12 00:27:38;;;;;;;4.57;2.85;;;6.30;65.10;;;;;;5012111;28;20037;-75
2022/04/12 00:30:08;;;;;;;7.78;2.55;;;6.40;65.20;;;;;;4997917;28;20033;-76
2022/04/12 00:32:34;;;;;;;3.90;2.58;;;6.30;64.60;;;;;;5006844;28;20106;-75
2022/04/12 00:34:59;;;;;;;4.88;2.35;;;6.30;65.30;;;;;;5020672;28;20060;-75
2022/04/12 00:37:25;;;;;;;3.80;2.72;;;6.20;65.30;;;;;;5009959;28;20492;-75
2022/04/12 00:39:52;;;;;;;4.00;2.30;;;6.20;65.40;;;;;;5019721;28;20037;-76
2022/04/12 00:42:17;;;;;;;3.33;2.42;;;6.20;65.60;;;;;;5038503;28;20220;-76
2022/04/12 00:44:43;;;;;;;4.75;2.90;;;6.10;65.70;;;;;;5006696;28;20136;-76
2022/04/12 00:47:08;;;;;;;3.10;2.60;;;6.10;65.70;;;;;;5035522;28;20032;-76
2022/04/12 00:49:34;;;;;;;4.32;2.58;;;6.10;65.80;;;;;;5003984;28;20033;-76
2022/04/12 00:51:59;;;;;;;4.60;2.97;;;6.10;65.90;;;;;;4995343;28;20029;-76
2022/04/12 00:54:25;;;;;;;3.58;2.42;;;6.00;65.90;;;;;;5006394;28;20036;-75
2022/04/12 00:56:51;;;;;;;4.20;2.80;;;6.00;66.00;;;;;;5005575;28;20036;-73
2022/04/12 00:59:17;;;;;;;5.88;2.58;;;5.90;66.00;;;;;;4979633;28;20508;-75
2022/04/12 01:01:42;;;;;;;3.58;2.90;;;5.90;66.90;;;;;;5039317;28;20120;-75
2022/04/12 01:04:08;;;;;;;3.08;2.40;;;5.90;66.30;;;;;;5027964;28;20088;-75
2022/04/12 01:06:33;;;;;;;5.40;2.60;;;5.80;66.30;;;;;;5026596;28;20060;-76
2022/04/12 01:08:59;;;;;;;7.00;2.95;;;5.80;66.40;;;;;;5004062;28;20033;-76
2022/04/12 01:11:26;;;;;;;6.47;2.97;;;5.80;66.60;;;;;;5007814;28;20118;-77
2022/04/12 01:13:52;;;;;;;3.83;2.53;;;5.80;66.60;;;;;;4994442;28;20103;-76
2022/04/12 01:16:17;;;;;;;4.75;2.88;;;5.80;66.60;;;;;;5027770;28;20639;-75
2022/04/12 01:18:43;;;;;;;7.57;2.83;;;5.80;66.60;;;;;;4996439;28;20049;-76
2022/04/12 01:21:08;;;;;;;3.00;2.45;;;5.80;66.80;;;;;;5025259;28;20095;-76
2022/04/12 01:23:55;;;;;;;3.50;2.60;;;5.70;66.80;;;;;;5019800;28;20044;-76
2022/04/12 01:26:20;;;;;;;4.57;2.60;;;5.70;66.80;;;;;;5005162;28;20444;-75
2022/04/12 01:28:46;;;;;;;5.13;2.60;;;5.60;66.80;;;;;;5026419;28;20039;-76
2022/04/12 01:31:12;;;;;;;4.38;2.90;;;5.60;66.80;;;;;;5039864;28;20045;-76
2022/04/12 01:33:40;;;;;;;5.47;2.80;;;5.60;67.00;;;;;;5003049;28;20040;-74
2022/04/12 01:36:06;;;;;;;5.05;2.75;;;5.60;67.00;;;;;;5021575;28;20131;-76
2022/04/12 01:38:31;;;;;;;5.85;3.22;;;5.50;67.10;;;;;;5018054;28;20250;-75
2022/04/12 01:40:57;;;;;;;5.82;2.95;;;5.50;67.30;;;;;;4996440;28;20038;-76
2022/04/12 01:43:22;;;;;;;4.57;2.90;;;5.40;67.30;;;;;;5020495;28;20056;-76
2022/04/12 01:45:48;;;;;;;2.40;2.20;;;5.40;67.50;;;;;;5007239;28;20036;-75
2022/04/12 01:48:13;;;;;;;4.15;2.78;;;5.40;67.60;;;;;;5039101;28;20044;-75
2022/04/12 01:50:39;;;;;;;3.90;2.88;;;5.40;67.70;;;;;;5024660;28;20044;-75
2022/04/12 01:53:05;;;;;;;4.63;3.63;;;5.30;67.70;;;;;;5003321;28;20327;-75
2022/04/12 01:55:30;;;;;;;3.20;2.78;;;5.30;67.70;;;;;;5005997;28;20408;-76
2022/04/12 01:57:56;;;;;;;3.60;3.00;;;5.30;67.90;;;;;;5023818;28;20029;-76
2022/04/12 02:00:21;;;;;;;3.85;2.70;;;5.30;68.00;;;;;;5023318;28;20640;-75
2022/04/12 02:02:47;;;;;;;3.65;2.78;;;5.30;68.00;;;;;;5010668;28;20126;-75
2022/04/12 02:05:12;;;;;;;6.05;2.63;;;5.30;68.10;;;;;;5011117;28;20044;-75
2022/04/12 02:07:38;;;;;;;3.92;3.20;;;5.30;68.20;;;;;;5001896;28;20116;-76
2022/04/12 02:10:06;;;;;;;4.88;2.95;;;5.30;68.30;;;;;;5038615;28;20393;-75
2022/04/12 02:12:32;;;;;;;5.43;2.70;;;5.30;68.30;;;;;;4993540;28;25436;-76
2022/04/12 02:14:59;;;;;;;3.33;2.58;;;5.20;68.20;;;;;;5020650;28;20116;-75
2022/04/12 02:17:25;;;;;;;8.40;3.20;;;5.20;68.30;;;;;;5026680;28;20029;-76
2022/04/12 02:19:50;;;;;;;5.15;2.70;;;5.20;68.40;;;;;;5011035;28;20033;-75
2022/04/12 02:22:16;;;;;;;3.58;2.80;;;5.20;68.40;;;;;;5003450;28;20040;-75
2022/04/12 02:24:41;;;;;;;2.63;2.42;;;5.10;68.40;;;;;;5008697;28;20801;-75
2022/04/12 02:27:07;;;;;;;4.45;3.22;;;5.10;68.60;;;;;;5006314;28;20505;-75
2022/04/12 02:29:32;;;;;;;4.35;3.35;;;5.10;68.60;;;;;;5011112;28;20064;-76
2022/04/12 02:31:58;;;;;;;3.50;2.95;;;5.10;68.80;;;;;;5009624;28;20036;-75
2022/04/12 02:34:23;;;;;;;4.65;2.88;;;5.00;68.70;;;;;;5004012;28;20540;-76
2022/04/12 02:36:49;;;;;;;4.88;3.22;;;5.00;68.90;;;;;;5020805;28;20041;-75
2022/04/12 02:39:15;;;;;;;5.32;3.60;;;5.00;68.90;;;;;;5032966;28;20037;-76
2022/04/12 02:41:40;;;;;;;5.95;3.08;;;5.00;69.00;;;;;;4999767;28;20029;-76
2022/04/12 02:44:06;;;;;;;13.50;3.45;;;4.90;69.00;;;;;;5022604;28;20063;-75
2022/04/12 02:46:31;;;;;;;5.60;3.28;;;4.90;69.00;;;;;;5024084;28;20052;-76
2022/04/12 02:48:57;;;;;;;4.28;3.00;;;4.90;69.10;;;;;;5016250;28;20057;-76
2022/04/12 02:51:22;;;;;;;7.28;3.40;;;4.90;69.20;;;;;;5032388;28;20072;-75
2022/04/12 02:53:48;;;;;;;7.95;3.53;;;4.90;69.30;;;;;;5018736;28;20560;-75
2022/04/12 02:56:13;;;;;;;4.97;3.00;;;4.90;69.40;;;;;;5001896;28;20041;-75
2022/04/12 02:58:39;;;;;;;7.85;3.05;;;4.90;69.40;;;;;;5020560;28;20028;-75
2022/04/12 03:01:05;;;;;;;3.80;2.88;;;4.80;69.30;;;;;;5006578;28;20033;-75
2022/04/12 03:03:30;;;;;;;6.80;3.63;;;4.80;69.50;;;;;;5038792;28;20037;-75
2022/04/12 03:05:56;;;;;;;4.00;2.92;;;4.70;69.50;;;;;;4998835;28;20059;-75
2022/04/12 03:08:22;;;;;;;3.97;3.05;;;4.70;69.60;;;;;;5031989;28;20037;-75
2022/04/12 03:10:48;;;;;;;3.58;3.10;;;4.70;69.70;;;;;;5008440;28;20099;-75
2022/04/12 03:13:13;;;;;;;5.82;3.30;;;4.70;69.90;;;;;;5038773;28;20053;-75
2022/04/12 03:15:39;;;;;;;5.68;3.75;;;4.70;69.90;;;;;;5007216;28;20094;-75
2022/04/12 03:18:04;;;;;;;4.88;3.47;;;4.70;69.90;;;;;;4988707;28;20032;-74
2022/04/12 03:20:30;;;;;;;8.27;3.30;;;4.60;69.90;;;;;;5024737;28;20051;-75
2022/04/12 03:22:56;;;;;;;4.75;3.10;;;4.60;70.00;;;;;;5018648;28;20077;-75
2022/04/12 03:25:22;;;;;;;4.20;3.22;;;4.50;70.00;;;;;;5008193;28;20056;-75
2022/04/12 03:27:48;;;;;;;5.60;3.22;;;4.50;70.10;;;;;;5028864;28;20029;-75
2022/04/12 03:30:13;;;;;;;5.68;3.17;;;4.50;70.20;;;;;;5029689;28;20049;-75
2022/04/12 03:32:39;;;;;;;5.10;4.20;;;4.40;70.30;;;;;;4997039;28;20196;-75
2022/04/12 03:35:05;;;;;;;5.40;3.25;;;4.40;70.40;;;;;;5000380;28;20060;-75
2022/04/12 03:37:30;;;;;;;5.45;3.63;;;4.30;70.30;;;;;;5011030;28;20077;-76
2022/04/12 03:39:56;;;;;;;3.58;2.83;;;4.30;70.40;;;;;;5029203;28;20029;-75
2022/04/12 03:42:22;;;;;;;7.18;3.53;;;4.30;70.60;;;;;;5039661;28;20655;-75
2022/04/12 03:44:47;;;;;;;5.43;3.40;;;4.30;70.70;;;;;;5024264;28;20445;-75
2022/04/12 03:47:13;;;;;;;3.75;2.97;;;4.20;70.70;;;;;;5008328;28;20033;-74
2022/04/12 03:49:38;;;;;;;5.40;3.00;;;4.20;70.80;;;;;;5013458;28;20037;-76
2022/04/12 03:52:04;;;;;;;7.30;4.38;;;4.20;70.90;;;;;;5007809;28;20055;-75
2022/04/12 03:54:30;;;;;;;5.75;3.72;;;4.20;71.00;;;;;;5016345;28;20040;-76
2022/04/12 03:56:56;;;;;;;6.28;3.13;;;4.20;71.10;;;;;;5022149;28;20132;-76
2022/04/12 03:59:21;;;;;;;7.15;3.53;;;4.20;71.20;;;;;;5001583;28;20041;-75
2022/04/12 04:01:47;;;;;;;6.22;3.53;;;4.10;71.20;;;;;;5012068;28;20539;-76
2022/04/12 04:04:13;;;;;;;5.68;3.95;;;4.20;71.40;;;;;;5001664;28;20037;-75
2022/04/12 04:06:38;;;;;;;4.13;2.90;;;4.20;71.50;;;;;;5005184;28;20046;-75
2022/04/12 04:09:04;;;;;;;4.80;3.22;;;4.20;71.60;;;;;;5020326;28;20061;-75
2022/04/12 04:11:29;;;;;;;4.07;3.00;;;4.20;72.40;;;;;;5010745;28;20832;-75
2022/04/12 04:13:55;;;;;;;4.53;3.38;;;4.20;71.60;;;;;;5021304;28;20460;-77
2022/04/12 04:16:21;;;;;;;7.78;4.00;;;4.20;71.60;;;;;;5025594;28;20033;-75
2022/04/12 04:18:46;;;;;;;6.63;3.00;;;4.20;71.60;;;;;;5022434;28;20025;-74
2022/04/12 04:21:12;;;;;;;5.95;3.75;;;4.20;71.70;;;;;;5021451;28;20131;-77
2022/04/12 04:23:37;;;;;;;5.05;3.20;;;4.20;71.80;;;;;;5022574;28;20033;-75
2022/04/12 04:26:03;;;;;;;6.38;3.72;;;4.20;71.70;;;;;;5008808;28;20039;-75
2022/04/12 04:28:30;;;;;;;9.18;3.60;;;4.20;71.80;;;;;;4999523;28;20037;-75
2022/04/12 04:30:56;;;;;;;5.80;3.60;;;4.20;71.90;;;;;;5012918;28;20048;-76
2022/04/12 04:33:21;;;;;;;6.05;4.13;;;4.20;72.00;;;;;;5003163;28;20041;-75
2022/04/12 04:35:47;;;;;;;9.25;4.70;;;4.10;71.80;;;;;;5002886;28;20080;-75
2022/04/12 04:38:13;;;;;;;5.82;4.55;;;4.20;72.00;;;;;;5015496;28;20041;-75
2022/04/12 04:40:38;;;;;;;6.43;4.40;;;4.20;72.10;;;;;;5003941;28;20051;-75
2022/04/12 04:43:04;;;;;;;12.45;5.57;;;4.20;72.10;;;;;;5015266;28;20468;-76
2022/04/12 04:45:30;;;;;;;7.07;4.55;;;4.20;72.10;;;;;;4992727;28;20538;-75
2022/04/12 04:47:58;;;;;;;6.65;4.63;;;4.10;72.10;;;;;;5004055;28;20078;-76
2022/04/12 04:50:25;;;;;;;7.90;4.30;;;4.20;72.20;;;;;;5008041;28;20297;-75
2022/04/12 04:52:50;;;;;;;5.78;3.70;;;4.10;72.20;;;;;;5008093;28;20045;-75
2022/04/12 04:55:16;;;;;;;6.15;4.10;;;4.10;72.20;;;;;;5023808;28;20107;-75
2022/04/12 04:57:42;;;;;;;5.55;4.13;;;4.10;72.30;;;;;;5008779;28;20648;-75
2022/04/12 05:00:15;;;;;;;7.85;3.72;;;4.10;72.30;;;;;;5021643;28;20033;-75
2022/04/12 05:02:48;;;;;;;5.30;3.75;;;4.00;72.30;;;;;;4981057;28;20504;-76
2022/04/12 05:05:14;;;;;;;8.20;4.13;;;4.00;72.60;;;;;;4995525;28;20041;-75
2022/04/12 05:07:40;;;;;;;6.50;4.00;;;4.00;72.50;;;;;;5018493;28;20029;-74
2022/04/12 05:10:07;;;;;;;5.30;3.42;;;3.90;72.60;;;;;;4999325;28;20034;-75
2022/04/12 05:12:32;;;;;;;5.20;3.47;;;3.90;72.80;;;;;;4996420;28;20033;-75
2022/04/12 05:14:58;;;;;;;6.05;3.28;;;4.00;73.00;;;;;;5006254;28;20037;-75
2022/04/12 05:17:27;;;;;;;6.78;4.10;;;4.00;73.20;;;;;;5006732;28;20025;-75
2022/04/12 05:19:52;;;;;;;10.27;4.40;;;4.10;73.20;;;;;;5008029;28;20533;-75
2022/04/12 05:22:18;;;;;;;6.65;5.07;;;4.10;74.00;;;;;;5030369;28;20043;-76
2022/04/12 05:24:45;;;;;;;6.18;5.18;;;4.10;73.20;;;;;;5005545;28;21114;-76
2022/04/12 05:27:10;;;;;;;14.48;7.38;;;4.20;73.20;;;;;;5006226;28;20037;-75
2022/04/12 05:29:36;;;;;;;9.20;5.85;;;4.20;73.20;;;;;;4990387;28;20045;-75
2022/04/12 05:32:02;;;;;;;7.65;5.60;;;4.20;73.30;;;;;;5035145;28;20036;-75
2022/04/12 05:34:28;;;;;;;8.02;5.07;;;4.20;73.20;;;;;;5006085;28;20029;-75
2022/04/12 05:36:53;;;;;;;8.60;5.97;;;4.30;73.30;;;;;;5032693;28;20044;-75
2022/04/12 05:39:19;;;;;;;10.45;6.43;;;4.30;73.30;;;;;;5037309;28;20029;-75
2022/04/12 05:41:44;;;;;;;10.55;7.75;;;4.30;73.30;;;;;;5029829;28;20029;-75
2022/04/12 05:44:10;;;;;;;10.70;6.90;;;4.30;73.30;;;;;;5018762;28;20394;-75
2022/04/12 05:46:35;;;;;;;9.02;6.15;;;4.40;73.40;;;;;;4979697;28;20112;-75
2022/04/12 05:49:01;;;;;;;5.93;4.68;;;4.40;73.40;;;;;;5022159;28;20484;-75
2022/04/12 05:51:27;;;;;;;6.38;4.32;;;4.40;73.40;;;;;;5015113;28;20784;-76
2022/04/12 05:53:52;;;;;;;6.03;4.60;;;4.50;73.50;;;;;;5023666;28;20140;-76
2022/04/12 05:56:18;;;;;;;7.47;4.55;;;4.50;73.60;;;;;;5019784;28;20038;-75
2022/04/12 05:58:43;;;;;;;6.00;4.30;;;4.50;73.60;;;;;;5020607;28;20481;-76
2022/04/12 06:01:09;;;;;;;7.97;4.55;;;4.60;73.70;;;;;;4987954;28;20065;-75
2022/04/12 06:03:34;;;;;;;6.88;4.38;;;4.60;73.70;;;;;;4980965;28;20040;-76
2022/04/12 06:06:00;;;;;;;5.68;4.28;;;4.70;73.80;;;;;;5005563;28;20039;-75
2022/04/12 06:08:25;;;;;;;7.10;4.18;;;4.70;73.80;;;;;;5022546;28;20063;-75
2022/04/12 06:10:51;;;;;;;10.25;5.00;;;4.80;73.90;;;;;;4990279;28;20428;-76
2022/04/12 06:13:16;;;;;;;7.20;5.35;;;4.80;73.80;;;;;;5021057;28;20073;-75
2022/04/12 06:15:42;;;;;;;6.43;4.70;;;4.90;73.90;;;;;;5004111;28;20052;-75
2022/04/12 06:18:08;;;;;;;11.07;5.22;;;4.90;73.80;;;;;;5038474;28;20033;-76
2022/04/12 06:20:33;;;;;;;19.67;12.40;;;5.00;73.70;;;;;;5039155;28;20040;-76
2022/04/12 06:22:59;;;;;;;11.15;6.90;;;5.10;73.80;;;;;;5003296;28;20044;-75
2022/04/12 06:25:24;;;;;;;19.50;9.68;;;5.20;73.80;;;;;;5003563;28;20063;-75
2022/04/12 06:27:50;;;;;;;14.63;8.15;;;5.20;73.70;;;;;;5017083;28;20116;-75
2022/04/12 06:30:26;;;;;;;17.88;9.85;;;5.30;73.70;;;;;;5002874;28;20052;-75
2022/04/12 06:32:52;;;;;;;14.70;8.55;;;5.40;74.00;;;;;;5017722;28;20041;-75
2022/04/12 06:35:18;;;;;;;10.07;6.57;;;5.40;73.50;;;;;;5017544;28;20102;-75
2022/04/12 06:37:44;;;;;;;12.45;6.25;;;5.50;74.20;;;;;;5020432;28;20039;-75
2022/04/12 06:40:11;;;;;;;11.93;7.68;;;5.60;73.30;;;;;;5019800;28;20025;-76
2022/04/12 06:42:36;;;;;;;10.65;7.35;;;5.60;73.30;;;;;;4989656;28;20026;-76
2022/04/12 06:45:03;;;;;;;9.98;5.65;;;5.70;73.30;;;;;;5021953;28;20554;-76
2022/04/12 06:47:28;;;;;;;8.80;5.13;;;5.80;73.40;;;;;;5009621;28;20124;-75
2022/04/12 06:49:54;;;;;;;9.38;6.45;;;5.80;73.40;;;;;;5022582;28;20492;-76
2022/04/12 06:52:21;;;;;;;9.00;5.47;;;6.00;73.60;;;;;;5034789;28;20064;-75
2022/04/12 06:54:47;;;;;;;10.15;5.65;;;6.10;73.50;;;;;;5003650;28;20029;-76
2022/04/12 06:57:12;;;;;;;8.45;5.22;;;6.20;73.20;;;;;;5036868;28;20120;-75
2022/04/12 06:59:38;;;;;;;7.80;5.35;;;6.30;73.20;;;;;;5005246;28;20033;-75
2022/04/12 07:02:04;;;;;;;10.90;5.93;;;6.40;73.00;;;;;;5005090;28;20037;-75
2022/04/12 07:04:30;;;;;;;7.40;4.82;;;6.50;73.70;;;;;;5002200;28;21684;-75
2022/04/12 07:06:56;;;;;;;9.57;5.38;;;6.60;72.80;;;;;;5023183;28;20392;-76
2022/04/12 07:09:23;;;;;;;7.95;5.45;;;6.80;72.60;;;;;;5009279;28;20528;-75
2022/04/12 07:11:52;;;;;;;7.22;5.13;;;6.90;72.60;;;;;;5023997;28;20048;-75
2022/04/12 07:14:17;;;;;;;9.23;5.45;;;7.00;72.40;;;;;;4993308;28;20041;-75
2022/04/12 07:16:43;;;;;;;6.25;3.95;;;7.10;72.20;;;;;;5028001;28;20116;-75
2022/04/12 07:19:08;;;;;;;7.47;5.10;;;7.30;72.00;;;;;;4999161;28;20040;-76
2022/04/12 07:21:34;;;;;;;9.38;4.68;;;7.40;71.80;;;;;;4996544;28;20033;-75
2022/04/12 07:24:00;;;;;;;8.60;4.60;;;7.60;71.60;;;;;;4997344;28;20037;-75
2022/04/12 07:26:28;;;;;;;6.13;4.28;;;7.80;71.40;;;;;;5007274;28;20042;-75
2022/04/12 07:28:54;;;;;;;12.45;4.78;;;7.90;71.20;;;;;;5021357;28;20056;-76
2022/04/12 07:31:19;;;;;;;9.45;4.00;;;8.10;71.00;;;;;;5010961;28;20045;-76
2022/04/12 07:33:45;;;;;;;8.25;4.40;;;8.30;70.70;;;;;;5011798;28;20086;-75
2022/04/12 07:36:10;;;;;;;8.25;4.63;;;8.40;70.50;;;;;;5010931;28;20037;-76
2022/04/12 07:38:36;;;;;;;5.45;4.22;;;8.60;70.30;;;;;;5015054;28;20388;-75
2022/04/12 07:41:01;;;;;;;5.95;3.80;;;8.70;70.00;;;;;;5004106;28;20026;-76
2022/04/12 07:43:27;;;;;;;6.70;3.83;;;8.90;69.80;;;;;;5023886;28;20025;-76
2022/04/12 07:45:52;;;;;;;6.03;3.50;;;9.00;69.60;;;;;;5006990;28;20211;-76
2022/04/12 07:48:18;;;;;;;6.47;4.35;;;9.30;69.40;;;;;;4999191;28;20170;-76
2022/04/12 07:50:44;;;;;;;6.18;3.90;;;9.40;69.10;;;;;;5004120;28;20539;-75
2022/04/12 07:53:09;;;;;;;7.85;4.20;;;9.70;68.90;;;;;;5008901;28;20033;-75
2022/04/12 07:55:35;;;;;;;6.15;3.55;;;9.80;68.50;;;;;;5020746;28;20029;-76
2022/04/12 07:58:00;;;;;;;4.93;3.55;;;10.00;68.10;;;;;;4996393;28;20021;-76
2022/04/12 08:00:26;;;;;;;8.68;4.57;;;10.20;67.70;;;;;;5021177;28;20033;-76
2022/04/12 08:02:51;;;;;;;4.35;3.40;;;10.40;67.40;;;;;;5009690;28;20112;-76
2022/04/12 08:05:17;;;;;;;5.28;3.97;;;10.50;67.00;;;;;;4985475;28;20195;-76
2022/04/12 08:07:48;;;;;;;5.05;3.35;;;10.70;66.90;;;;;;5009988;28;20033;-77
2022/04/12 08:10:15;;;;;;;;;;;10.90;66.50;;;;;;5009337;28;20052;-76
2022/04/12 08:12:41;;;;;;;6.95;3.95;;;11.00;66.30;;;;;;5026065;28;19916;-76
2022/04/12 08:15:07;;;;;;;6.53;3.47;;;11.20;66.10;;;;;;5009456;28;20448;-76
2022/04/12 08:17:33;;;;;;;7.03;4.10;;;11.40;65.80;;;;;;5029577;28;20032;-75
2022/04/12 08:20:00;;;;;;;6.45;3.70;;;11.60;65.30;;;;;;5007105;28;20029;-76
2022/04/12 08:22:26;;;;;;;6.35;3.33;;;11.80;64.70;;;;;;5035857;28;20030;-76
2022/04/12 08:24:52;;;;;;;7.30;3.78;;;12.00;64.30;;;;;;5005826;28;20038;-77
2022/04/12 08:27:18;;;;;;;4.28;3.50;;;12.20;64.10;;;;;;4992976;28;20053;-76
2022/04/12 08:29:44;;;;;;;4.45;3.30;;;12.30;63.80;;;;;;5009035;28;20059;-77
2022/04/12 08:32:10;;;;;;;5.28;3.78;;;12.60;63.50;;;;;;5011578;28;20693;-77
2022/04/12 08:34:35;;;;;;;5.90;3.20;;;12.70;62.90;;;;;;5025550;28;20120;-77
2022/04/12 08:37:02;;;;;;;5.95;3.80;;;12.90;62.50;;;;;;5023800;28;20508;-77
2022/04/12 08:39:27;;;;;;;4.35;3.65;;;13.10;62.20;;;;;;5023288;28;20377;-76
2022/04/12 08:41:53;;;;;;;4.03;3.53;;;13.30;62.00;;;;;;5026150;28;20029;-77
2022/04/12 08:44:18;;;;;;;6.38;3.45;;;13.60;61.60;;;;;;5002973;28;20597;-76
2022/04/12 08:46:47;;;;;;;5.28;3.53;;;13.80;61.30;;;;;;5022691;28;20048;-76
2022/04/12 08:49:13;;;;;;;6.97;3.22;;;14.00;60.90;;;;;;5007930;28;20037;-76
2022/04/12 08:51:39;;;;;;;5.35;3.17;;;14.20;60.40;;;;;;5024089;28;20073;-76
2022/04/12 08:54:04;;;;;;;4.30;3.50;;;14.40;60.30;;;;;;4994600;28;20037;-77
2022/04/12 08:56:30;;;;;;;4.93;3.58;;;14.60;59.90;;;;;;5009518;28;20389;-75
2022/04/12 08:58:56;;;;;;;6.20;3.50;;;14.80;59.50;;;;;;5009967;28;20113;-76
2022/04/12 09:01:22;;;;;;;5.05;3.42;;;14.90;59.30;;;;;;5019647;28;20045;-76
2022/04/12 09:03:47;;;;;;;7.40;3.63;;;15.10;58.80;;;;;;4999735;28;20036;-77
2022/04/12 09:06:13;;;;;;;6.88;3.65;;;15.20;58.20;;;;;;5014137;28;20045;-78
2022/04/12 09:08:41;;;;;;;6.30;3.55;;;15.40;58.10;;;;;;5025972;28;20028;-78
2022/04/12 09:11:08;;;;;;;4.57;3.10;;;15.60;57.80;;;;;;5022261;28;20033;-77
2022/04/12 09:13:36;;;;;;;6.65;3.50;;;15.70;57.40;;;;;;5041157;28;20032;-78
2022/04/12 09:16:02;;;;;;;4.75;3.05;;;15.90;57.30;;;;;;5005571;28;20032;-75
2022/04/12 09:18:43;;;;;;;6.40;2.95;;;16.10;57.10;;;;;;5023339;28;20030;-77
2022/04/12 09:21:13;;;;;;;10.65;4.20;;;16.40;56.40;;;;;;5006942;28;20041;-77
2022/04/12 09:23:48;;;;;;;5.00;3.60;;;16.60;56.50;;;;;;5030717;28;20025;-78
2022/04/12 09:26:24;;;;;;;7.65;3.80;;;16.90;56.10;;;;;;4997516;28;20203;-76
2022/04/12 09:28:51;;;;;;;4.50;3.60;;;17.10;55.20;;;;;;5009648;28;20064;-77
2022/04/12 09:31:17;;;;;;;5.60;3.30;;;17.30;55.00;;;;;;5019372;28;20052;-77
2022/04/12 09:33:44;;;;;;;5.35;3.78;;;17.50;54.60;;;;;;5015129;28;20030;-76
2022/04/12 09:36:09;;;;;;;7.75;3.40;;;17.70;54.50;;;;;;5035556;28;20029;-77
2022/04/12 09:38:39;;;;;;;4.65;3.70;;;17.70;54.10;;;;;;5009685;28;20033;-77
2022/04/12 09:41:24;;;;;;;4.18;2.90;;;17.90;54.00;;;;;;5009099;28;20037;-77
2022/04/12 09:44:16;;;;;;;5.88;3.10;;;18.10;53.70;;;;;;5015014;28;20037;-77
2022/04/12 09:46:47;;;;;;;3.58;2.50;;;18.30;52.90;;;;;;4993231;28;20044;-77
2022/04/12 09:49:13;;;;;;;4.35;2.67;;;18.50;53.30;;;;;;4994519;28;20513;-76
2022/04/12 09:51:39;;;;;;;3.70;2.80;;;18.80;53.20;;;;;;5006070;28;20090;-77
2022/04/12 09:54:08;;;;;;;5.60;2.92;;;18.90;53.00;;;;;;5045630;28;20834;-76
2022/04/12 09:56:37;;;;;;;5.95;3.05;;;19.10;52.60;;;;;;5023970;28;20025;-78
2022/04/12 09:59:07;;;;;;;3.75;2.60;;;19.30;52.10;;;;;;5041321;28;20051;-77
2022/04/12 10:01:39;;;;;;;4.33;3.40;;;19.30;51.80;;;;;;5008266;28;20041;-78
2022/04/12 10:04:17;;;;;;;4.97;2.88;;;19.30;51.40;;;;;;5020403;28;20342;-78
2022/04/12 10:06:43;;;;;;;3.17;2.42;;;19.50;51.40;;;;;;5015307;28;20055;-77
2022/04/12 10:09:10;;;;;;;4.25;2.95;;;19.60;51.30;;;;;;5024405;28;20504;-79
2022/04/12 10:11:36;;;;;;;5.22;2.63;;;19.80;51.00;;;;;;5011010;28;20056;-77
2022/04/12 10:14:02;;;;;;;4.82;2.85;;;20.00;51.60;;;;;;4982846;28;20035;-78
2022/04/12 10:16:27;;;;;;;3.58;2.83;;;20.20;50.70;;;;;;5007255;28;20693;-77
2022/04/12 10:18:54;;;;;;;4.63;2.58;;;20.40;50.20;;;;;;5020574;28;20033;-77
2022/04/12 10:21:22;;;;;;;2.92;2.45;;;20.50;49.70;;;;;;5008290;28;20460;-79
2022/04/12 10:23:56;;;;;;;5.85;2.45;;;20.60;49.50;;;;;;5024916;28;20037;-78
2022/04/12 10:26:22;;;;;;;4.72;2.45;;;20.80;48.90;;;;;;4985058;28;20435;-76
2022/04/12 10:28:59;;;;;;;5.18;2.75;;;21.00;49.00;;;;;;5014729;28;20033;-77
2022/04/12 10:31:30;;;;;;;4.93;2.88;;;21.20;47.90;;;;;;5007356;28;20392;-78
2022/04/12 10:34:09;;;;;;;3.40;2.30;;;21.40;48.20;;;;;;5033721;28;20034;-78
2022/04/12 10:36:53;;;;;;;4.75;2.50;;;21.60;47.60;;;;;;5005059;28;20059;-77
2022/04/12 10:39:20;;;;;;;4.30;2.45;;;21.90;47.00;;;;;;5018846;28;20045;-79
2022/04/12 10:41:47;;;;;;;4.78;2.60;;;22.10;47.30;;;;;;4993650;28;20132;-78
2022/04/12 10:44:20;;;;;;;3.58;2.45;;;22.30;47.10;;;;;;4990605;28;20053;-77
2022/04/12 10:46:51;;;;;;;3.33;2.80;;;22.40;46.40;;;;;;5023510;28;20057;-79
2022/04/12 10:49:20;;;;;;;3.65;2.83;;;22.50;46.30;;;;;;4990519;28;20741;-78
2022/04/12 10:51:48;;;;;;;2.13;1.90;;;22.70;46.00;;;;;;4981466;28;20075;-79
2022/04/12 10:54:46;;;;;;;3.75;2.50;;;22.90;45.80;;;;;;5020244;28;20046;-77
2022/04/12 10:57:23;;;;;;;3.45;2.70;;;23.10;44.90;;;;;;4953633;28;20034;-75
2022/04/12 10:59:53;;;;;;;4.20;2.85;;;23.20;45.30;;;;;;4995696;28;20033;-75
2022/04/12 11:02:18;;;;;;;3.55;2.72;;;23.40;44.80;;;;;;4984227;28;20043;-77
2022/04/12 11:04:44;;;;;;;2.83;2.15;;;23.50;44.40;;;;;;5014062;28;20496;-78
2022/04/12 11:07:10;;;;;;;6.25;2.35;;;23.70;44.40;;;;;;4975500;28;20034;-77
2022/04/12 11:09:38;;;;;;;2.25;1.90;;;23.80;44.00;;;;;;5025316;28;20033;-75
2022/04/12 11:12:04;;;;;;;3.20;2.30;;;23.90;43.70;;;;;;4993729;28;20615;-76
2022/04/12 11:14:38;;;;;;;7.78;2.72;;;24.10;43.40;;;;;;5008196;28;20056;-76
2022/04/12 11:17:08;;;;;;;11.20;2.20;;;24.20;43.00;;;;;;5026937;28;20020;-74
2022/04/12 11:19:44;;;;;;;2.50;2.10;;;24.30;42.80;;;;;;4986033;28;20399;-78
2022/04/12 11:22:11;;;;;;;4.45;2.40;;;24.60;42.40;;;;;;4987989;28;20335;-77
2022/04/12 11:24:39;;;;;;;3.60;2.47;;;24.80;42.40;;;;;;5009514;28;20029;-77
2022/04/12 11:27:09;;;;;;;3.15;2.58;;;25.10;41.70;;;;;;5007064;28;20044;-76
2022/04/12 11:29:38;;;;;;;5.15;1.95;;;25.20;41.20;;;;;;5001726;28;20139;-77
2022/04/12 11:32:04;;;;;;;2.22;1.70;;;25.50;41.00;;;;;;5001412;28;20033;-76
2022/04/12 11:34:30;;;;;;;3.83;1.90;;;25.70;40.80;;;;;;5017591;28;20051;-76
2022/04/12 11:36:58;;;;;;;3.08;2.40;;;25.90;40.60;;;;;;5013789;28;20037;-76
2022/04/12 11:39:25;;;;;;;2.63;2.17;;;26.20;40.00;;;;;;5024416;28;20140;-78
2022/04/12 11:42:02;;;;;;;2.47;1.92;;;26.30;39.70;;;;;;4992896;28;20033;-77
2022/04/12 11:44:28;;;;;;;2.97;2.05;;;26.50;39.10;;;;;;5001940;28;20112;-76
2022/04/12 11:47:11;;;;;;;2.85;1.98;;;26.70;39.20;;;;;;5015851;28;20846;-77
2022/04/12 11:49:41;;;;;;;4.05;1.73;;;26.80;38.60;;;;;;5000352;28;20746;-75
2022/04/12 11:52:14;;;;;;;4.07;1.98;;;27.00;38.90;;;;;;4990572;28;20040;-76
2022/04/12 11:54:45;;;;;;;2.30;2.10;;;27.10;38.50;;;;;;4984504;28;20032;-76
2022/04/12 11:57:14;;;;;;;6.00;2.47;;;27.30;38.20;;;;;;5021600;28;20523;-76
2022/04/12 11:59:56;;;;;;;2.97;2.58;;;27.50;38.00;;;;;;5035204;28;20056;-75
2022/04/12 12:02:25;;;;;;;5.47;2.50;;;27.60;37.20;;;;;;5015446;28;20796;-76
2022/04/12 12:04:56;;;;;;;4.55;2.42;;;27.70;37.80;;;;;;5009699;28;20028;-76
2022/04/12 12:07:22;;;;;;;;;;;27.90;37.70;;;;;;4998279;28;20120;-76
2022/04/12 12:09:57;;;;;;;3.47;2.10;;;28.00;37.70;;;;;;5004343;28;19967;-76
2022/04/12 12:12:46;;;;;;;4.88;2.50;;;28.00;37.60;;;;;;5012057;28;20627;-76
2022/04/12 12:15:18;;;;;;;5.93;2.58;;;28.00;36.10;;;;;;5030749;28;20034;-78
2022/04/12 12:17:46;;;;;;;4.05;2.97;;;28.10;36.80;;;;;;5026046;28;20048;-76
2022/04/12 12:20:13;;;;;;;3.33;2.33;;;28.10;36.80;;;;;;5001018;28;20738;-75
2022/04/12 12:22:50;;;;;;;4.20;2.17;;;28.20;36.40;;;;;;5043740;28;20064;-76
2022/04/12 12:25:18;;;;;;;3.50;2.50;;;28.30;36.20;;;;;;4998393;28;20436;-76
2022/04/12 12:27:53;;;;;;;3.25;2.75;;;28.40;36.10;;;;;;4995254;28;20084;-76
2022/04/12 12:30:21;;;;;;;3.97;2.70;;;28.50;35.10;;;;;;5000939;28;20071;-77
2022/04/12 12:32:50;;;;;;;5.93;2.70;;;28.60;35.50;;;;;;5015940;28;20036;-77
2022/04/12 12:35:17;;;;;;;4.78;2.53;;;28.60;35.10;;;;;;5046046;28;20128;-77
2022/04/12 12:37:43;;;;;;;2.45;2.20;;;28.60;35.20;;;;;;5034662;28;20105;-77
2022/04/12 12:40:24;;;;;;;4.88;2.40;;;28.60;35.00;;;;;;5004220;28;20025;-76
2022/04/12 12:42:53;;;;;;;5.25;2.33;;;28.60;34.20;;;;;;5048502;28;20071;-76
2022/04/12 12:45:20;;;;;;;4.63;2.40;;;28.70;34.70;;;;;;5005525;28;20028;-76
2022/04/12 12:47:54;;;;;;;2.72;2.42;;;28.70;34.70;;;;;;5012673;28;20037;-76
2022/04/12 12:50:25;;;;;;;4.32;2.45;;;28.80;34.70;;;;;;5018500;28;20036;-75
2022/04/12 12:52:59;;;;;;;2.53;2.30;;;29.00;34.60;;;;;;5038852;28;20039;-76
2022/04/12 12:55:26;;;;;;;2.55;2.17;;;29.10;34.10;;;;;;5011667;28;20041;-75